Data for 08/10/2017

Time Sea-Level Adjusted Pressure Absolute Pressure Temperature Relative Humidity Dew Point   
(mb) (inHg) (mb) (inHg) (C) (F) (%) (C) (F)
00:05 1024 30.24 854 25.22 12.8 55.1 63 5.9 42.7
00:10 1024 30.24 854 25.22 12.8 55 63 6 42.7
00:15 1024 30.24 854 25.22 12.7 54.9 63 5.8 42.5
00:20 1024 30.24 854 25.22 12.8 55 62 5.8 42.5
00:25 1024 30.24 854 25.22 12.7 54.9 63 6 42.8
00:25 1024 30.24 854 25.22 12.7 54.9 63 6 42.8
00:30 1024 30.24 854 25.22 12.6 54.6 63 5.8 42.5
00:35 1024 30.24 854 25.22 12.5 54.6 63 5.7 42.3
00:40 1024 30.24 854 25.22 12.5 54.5 64 5.8 42.4
00:45 1025 30.27 854 25.22 12.5 54.5 62 5.5 42
00:50 1025 30.27 854 25.22 12.7 54.9 62 5.6 42.1
00:55 1025 30.27 854 25.22 12.6 54.6 63 5.7 42.3
01:00 1025 30.27 854 25.22 12.4 54.3 63 5.5 42
01:05 1025 30.27 854 25.22 12.5 54.6 61 5.2 41.3
01:10 1025 30.27 854 25.22 12.7 54.9 61 5.5 42
01:15 1025 30.27 854 25.22 12.8 55 60 5.3 41.6
01:20 1025 30.27 854 25.22 12.8 55 61 5.5 41.8
01:25 1025 30.27 854 25.22 12.7 54.9 61 5.3 41.6
01:30 1025 30.27 854 25.22 12.7 54.8 61 5.3 41.6
01:35 1025 30.27 854 25.22 12.8 55 59 5.1 41.1
01:40 1025 30.27 854 25.22 13 55.3 59 5.2 41.4
01:45 1025 30.27 854 25.22 13 55.4 59 5.2 41.3
01:50 1025 30.27 854 25.22 13.1 55.5 58 5 41.1
01:55 1025 30.27 854 25.22 13.2 55.7 57 5 41
02:00 1025 30.27 854 25.22 13.2 55.8 58 5.1 41.2
02:05 1025 30.27 854 25.22 13.1 55.5 58 5.1 41.2
02:10 1025 30.27 854 25.22 12.7 54.9 59 4.9 40.8
02:15 1025 30.27 854 25.22 12.6 54.6 59 4.9 40.8
02:20 1025 30.27 854 25.22 12.4 54.4 60 4.9 40.8
02:25 1025 30.27 854 25.22 12.2 54 60 4.8 40.6
02:30 1025 30.27 854 25.22 12 53.5 61 4.8 40.6
02:35 1024 30.24 854 25.22 11.6 52.9 62 4.6 40.3
02:40 1024 30.24 854 25.22 11.7 53 62 4.7 40.5
02:45 1025 30.27 854 25.22 11.7 53.1 62 4.8 40.7
02:50 1025 30.27 854 25.22 11.9 53.4 62 4.9 40.8
02:55 1025 30.27 854 25.22 12 53.5 62 4.9 40.8
03:00 1025 30.27 854 25.22 12.1 53.7 62 5.1 41.1
03:05 1025 30.27 854 25.22 12.1 53.7 62 5.1 41.2
03:10 1025 30.27 854 25.22 11.9 53.5 63 5.2 41.3
03:15 1025 30.27 854 25.22 11.9 53.3 63 5.1 41.3
03:20 1025 30.27 854 25.22 11.8 53.3 63 5.1 41.2
03:25 1025 30.27 854 25.22 11.8 53.2 64 5.2 41.3
03:30 1025 30.27 854 25.22 11.8 53.2 63 5.1 41.2
03:35 1025 30.27 854 25.22 11.8 53.3 64 5.2 41.3
03:40 1025 30.27 854 25.22 11.7 53.1 64 5.2 41.4
03:45 1025 30.27 854 25.22 11.7 53.1 65 5.4 41.7
03:50 1025 30.27 854 25.22 11.6 52.9 66 5.5 41.9
03:55 1025 30.27 854 25.22 11.5 52.7 67 5.5 41.9
04:00 1025 30.27 854 25.22 11.4 52.6 67 5.5 41.9
04:05 1025 30.27 854 25.22 11.4 52.5 67 5.5 41.9
04:10 1025 30.27 854 25.22 11.5 52.6 66 5.4 41.7
04:15 1025 30.27 854 25.22 11.5 52.6 66 5.4 41.8
04:20 1025 30.27 854 25.22 11.3 52.3 67 5.4 41.7
04:25 1025 30.27 854 25.22 11.3 52.3 67 5.3 41.6
04:30 1025 30.27 854 25.22 11.2 52.1 67 5.3 41.5
04:35 1025 30.27 854 25.22 11.1 52 67 5.2 41.3
04:40 1025 30.27 854 25.22 11.2 52.2 65 5 41
04:45 1025 30.27 854 25.22 11.3 52.3 65 4.9 40.8
04:50 1025 30.27 854 25.22 11.3 52.3 65 4.9 40.9
04:55 1025 30.27 854 25.22 11.3 52.3 64 4.7 40.5
05:00 1025 30.27 854 25.22 11.5 52.8 63 4.8 40.6
05:05 1025 30.27 854 25.22 11.7 53 64 5.1 41.1
05:10 1025 30.27 854 25.22 11.7 53.1 64 5.1 41.2
05:15 1025 30.27 854 25.22 11.5 52.6 65 5.1 41.2
05:20 1025 30.27 854 25.22 11 51.8 66 5 40.9
05:25 1025 30.27 854 25.22 10.9 51.5 67 4.9 40.8
05:30 1025 30.27 854 25.22 11.1 51.9 66 5 41
05:35 1025 30.27 854 25.22 11 51.7 67 5 41
05:40 1025 30.27 854 25.22 10.8 51.4 68 5.1 41.1
05:45 1025 30.27 854 25.22 11 51.8 67 5.1 41.1
05:50 1025 30.27 854 25.22 11.1 52 67 5.2 41.3
05:55 1025 30.27 854 25.22 11 51.8 67 5.1 41.2
06:00 1025 30.27 854 25.22 10.7 51.3 68 5.2 41.3
06:05 1025 30.27 854 25.22 10.6 51 68 5 41
06:10 1025 30.27 854 25.22 10.5 50.9 68 4.9 40.9
06:15 1025 30.27 854 25.22 10.5 50.8 69 5 41
06:20 1025 30.27 854 25.22 10.3 50.5 68 4.7 40.4
06:25 1025 30.27 854 25.22 10.2 50.4 68 4.6 40.3
06:30 1025 30.27 854 25.22 10.4 50.6 68 4.7 40.4
06:35 1025 30.27 854 25.22 10.4 50.7 67 4.7 40.4
06:40 1025 30.27 854 25.22 10.5 50.8 67 4.6 40.3
06:45 1025 30.27 854 25.22 10.5 50.8 67 4.6 40.2
06:50 1025 30.27 854 25.22 10.5 50.9 67 4.6 40.3
06:55 1025 30.27 854 25.22 10.6 51.1 67 4.7 40.5
07:00 1025 30.27 854 25.22 10.7 51.2 66 4.7 40.4
07:05 1025 30.27 854 25.22 10.8 51.4 66 4.6 40.4
07:10 1025 30.27 854 25.22 11.2 52.2 64 4.8 40.6
07:15 1025 30.27 854 25.22 11.5 52.7 64 5 41
07:20 1025 30.27 854 25.22 11.6 52.8 64 5.1 41.1
07:25 1025 30.27 854 25.22 11.6 52.9 64 5.1 41.2
07:30 1025 30.27 854 25.22 11.7 53 64 5.2 41.3
07:35 1025 30.27 855 25.25 11.8 53.2 63 5.1 41.1
07:40 1025 30.27 854 25.22 12 53.7 62 5.1 41.2
07:45 1025 30.27 855 25.25 12.2 53.9 63 5.3 41.6
07:50 1025 30.27 855 25.25 12.5 54.4 61 5.3 41.5
07:55 1025 30.27 854 25.22 12.7 54.9 60 5.3 41.6
08:00 1025 30.27 854 25.22 12.9 55.2 60 5.4 41.7
08:05 1025 30.27 854 25.22 13.1 55.6 59 5.4 41.7
08:10 1025 30.27 855 25.25 13.4 56.2 58 5.4 41.8
08:15 1025 30.27 854 25.22 13.7 56.6 59 5.8 42.4
08:20 1025 30.27 854 25.22 13.9 57 58 5.8 42.4
08:25 1025 30.27 854 25.22 14.1 57.4 57 5.8 42.4
08:30 1025 30.27 854 25.22 14.6 58.3 55 5.9 42.5
08:35 1025 30.27 854 25.22 14.9 58.8 55 6.1 43
08:40 1025 30.27 854 25.22 15.4 59.7 53 6 42.9
08:45 1025 30.27 854 25.22 15.5 59.9 53 6.2 43.1
08:50 1025 30.27 855 25.25 15.6 60.1 53 6.2 43.2
08:55 1025 30.27 855 25.25 15.8 60.4 53 6.3 43.3
09:00 1025 30.27 855 25.25 16.2 61.1 52 6.4 43.5
09:05 1025 30.27 854 25.22 16.3 61.3 51 6.1 42.9
09:10 1025 30.27 854 25.22 16.7 62 50 6.3 43.3
09:15 1025 30.27 854 25.22 17.2 62.9 49 6.4 43.5
09:20 1025 30.27 854 25.22 16.9 62.5 47 5.8 42.4
09:25 1025 30.27 854 25.22 16.7 62.1 47 5.4 41.7
09:30 1025 30.27 854 25.22 16.7 62 47 5.4 41.7
09:35 1025 30.27 854 25.22 17.2 62.9 45 5.1 41.2
09:40 1025 30.27 855 25.25 17.5 63.5 46 5.9 42.7
09:45 1025 30.27 855 25.25 17.2 62.9 45 5.4 41.7
09:50 1025 30.27 855 25.25 17.5 63.5 44 5.2 41.4
09:55 1025 30.27 855 25.25 18.5 65.4 40 5 41
10:00 1025 30.27 854 25.22 19.4 66.9 37 4.6 40.2
10:05 1025 30.27 854 25.22 19.9 67.7 37 4.8 40.7
10:10 1025 30.27 854 25.22 18.9 65.9 39 4.8 40.7
10:15 1025 30.27 854 25.22 18.7 65.6 40 5 41
10:20 1025 30.27 854 25.22 18.7 65.6 41 5.2 41.4
10:25 1025 30.27 854 25.22 19.8 67.7 35 4.2 39.6
10:30 1025 30.27 854 25.22 20.3 68.5 35 4.7 40.4
10:35 1025 30.27 854 25.22 20.5 68.8 36 4.9 40.7
10:40 1025 30.27 854 25.22 21 69.8 35 5 41
10:45 1025 30.27 854 25.22 21.3 70.3 34 4.8 40.6
10:50 1025 30.27 854 25.22 21 69.7 35 4.9 40.8
10:55 1025 30.27 854 25.22 21.2 70.1 33 4.5 40
11:00 1025 30.27 854 25.22 22 71.6 32 4.6 40.2
11:05 1025 30.27 854 25.22 22.6 72.6 31 5 41
11:10 1025 30.27 854 25.22 21.7 71.1 33 4.8 40.6
11:15 1025 30.27 854 25.22 21.8 71.2 32 4.3 39.8
11:20 1025 30.27 854 25.22 22.4 72.2 31 4.4 40
11:25 1025 30.27 854 25.22 22.4 72.3 31 4.5 40.1
11:30 1025 30.27 854 25.22 22.8 73 29 4.1 39.3
11:35 1025 30.27 854 25.22 23.5 74.2 28 4.2 39.6
11:40 1025 30.27 854 25.22 23.2 73.8 30 5 40.9
11:45 1025 30.27 854 25.22 23.1 73.6 28 4 39.1
11:50 1025 30.27 854 25.22 22.9 73.3 29 4.2 39.6
11:55 1025 30.27 854 25.22 22.7 72.9 28 3.7 38.7
12:00 1025 30.27 854 25.22 23.1 73.5 28 3.6 38.5
12:05 1025 30.27 854 25.22 23.2 73.8 25 2.3 36.2
12:10 1025 30.27 854 25.22 23.7 74.6 23 1.6 34.9
12:15 1025 30.27 854 25.22 24.5 76.1 22 1.9 35.4
12:20 1024 30.24 854 25.22 24.9 76.9 20 0.5 33
12:25 1024 30.24 854 25.22 23.8 74.8 21 0.3 32.6
12:30 1024 30.24 854 25.22 23.1 73.7 22 0.2 32.3
12:35 1024 30.24 854 25.22 23.9 75 20 -0.5 31.2
12:40 1024 30.24 854 25.22 23.5 74.4 19 -1.5 29.3
12:45 1024 30.24 854 25.22 24.1 75.5 18 -1.1 30.1
12:50 1024 30.24 853 25.19 25.7 78.2 17 -0.7 30.8
12:55 1024 30.24 853 25.19 25.6 78.2 15 -2.4 27.6
13:00 1024 30.24 853 25.19 25.3 77.6 16 -2.4 27.6
13:05 1024 30.24 853 25.19 24.7 76.5 17 -1.9 28.6
13:10 1024 30.24 853 25.19 25.4 77.7 15 -2.5 27.5
13:15 1024 30.24 853 25.19 26.1 78.9 15 -2.1 28.2
13:20 1024 30.24 853 25.19 26.3 79.3 15 -2.6 27.3
13:25 1024 30.24 853 25.19 25.9 78.6 15 -2.5 27.5
13:30 1024 30.24 853 25.19 25.2 77.4 14 -3.9 25
13:35 1024 30.24 853 25.19 26.1 79 14 -3.6 25.5
13:40 1024 30.24 853 25.19 26.3 79.3 13 -4 24.7
13:45 1024 30.24 853 25.19 25.9 78.6 13 -4 24.8
13:50 1024 30.24 853 25.19 25.8 78.5 13 -4.5 24
13:55 1024 30.24 853 25.19 26.4 79.5 13 -4.1 24.6
14:00 1024 30.24 853 25.19 26.8 80.3 13 -4 24.8
14:05 1024 30.24 853 25.19 26.4 79.5 13 -4.5 24
14:10 1024 30.24 853 25.19 26.6 79.8 13 -4.2 24.4
14:15 1024 30.24 853 25.19 26.6 79.8 12 -4.6 23.8
14:20 1024 30.24 853 25.19 26.3 79.3 12 -5.2 22.7
14:25 1024 30.24 853 25.19 27 80.7 11 -5.6 21.9
14:30 1024 30.24 853 25.19 27.4 81.2 12 -3.8 25.1
14:35 1024 30.24 853 25.19 27.2 81 12 -4.8 23.4
14:40 1024 30.24 853 25.19 27.3 81.1 11 -5.1 22.9
14:45 1024 30.24 853 25.19 27.1 80.7 13 -3.9 25
14:50 1024 30.24 853 25.19 27 80.5 12 -5.1 22.9
14:55 1024 30.24 853 25.19 26.9 80.4 11 -5.7 21.8
15:00 1024 30.24 853 25.19 26.9 80.5 10 -6.4 20.5
15:05 1024 30.24 853 25.19 26.8 80.2 11 -6.4 20.5
15:10 1023 30.21 853 25.19 27.1 80.7 10 -6.9 19.6
15:15 1023 30.21 853 25.19 27.2 81 10 -7.5 18.6
15:20 1023 30.21 853 25.19 27.3 81.1 10 -7 19.4
15:25 1023 30.21 853 25.19 27.8 82 10 -7 19.4
15:30 1023 30.21 853 25.19 28 82.4 10 -5.7 21.7
15:35 1023 30.21 853 25.19 27.1 80.8 12 -4.3 24.2
15:40 1023 30.21 853 25.19 27.3 81.1 12 -4.3 24.3
15:45 1023 30.21 852 25.16 27.6 81.7 12 -4.3 24.3
15:50 1023 30.21 852 25.16 27.6 81.8 12 -3.5 25.7
15:55 1023 30.21 852 25.16 28 82.4 12 -3.8 25.1
16:00 1023 30.21 852 25.16 28 82.4 13 -2.9 26.7
16:05 1023 30.21 852 25.16 27.9 82.1 12 -3.8 25.1
16:10 1023 30.21 852 25.16 27.6 81.8 12 -3.6 25.5
16:15 1023 30.21 852 25.16 28.1 82.5 12 -3.3 26.1
16:20 1023 30.21 852 25.16 28.5 83.2 13 -2.6 27.4
16:25 1023 30.21 852 25.16 28.4 83.1 13 -2.2 28.1
16:30 1023 30.21 852 25.16 27.9 82.2 13 -2.8 26.9
16:35 1023 30.21 852 25.16 27.9 82.2 13 -3.2 26.3
16:40 1023 30.21 852 25.16 27.6 81.7 13 -3.1 26.4
16:45 1023 30.21 852 25.16 27.3 81.1 13 -2.8 27
16:50 1023 30.21 852 25.16 27.5 81.5 13 -3.1 26.5
16:55 1023 30.21 852 25.16 27.9 82.2 14 -1.6 29.1
17:00 1023 30.21 852 25.16 28 82.5 13 -2.9 26.8
17:05 1023 30.21 852 25.16 27.8 82.1 13 -3.3 26.1
17:10 1023 30.21 852 25.16 28.2 82.8 13 -2.8 26.9
17:15 1023 30.21 852 25.16 28.2 82.7 13 -3 26.6
17:20 1023 30.21 852 25.16 27.6 81.7 13 -2.5 27.4
17:25 1022 30.18 852 25.16 27.6 81.7 14 -2.3 27.9
17:30 1022 30.18 852 25.16 27.9 82.1 13 -2.5 27.6
17:35 1022 30.18 852 25.16 28 82.3 13 -3.2 26.2
17:40 1022 30.18 852 25.16 27.6 81.6 12 -4 24.8
17:45 1022 30.18 852 25.16 27.7 81.9 12 -3.6 25.4
17:50 1022 30.18 851 25.13 27.9 82.3 13 -2.7 27.2
17:55 1022 30.18 851 25.13 27.6 81.8 14 -2.2 28
18:00 1022 30.18 851 25.13 27.6 81.6 13 -3.3 26.1
18:05 1022 30.18 851 25.13 27.6 81.8 12 -4 24.8
18:10 1022 30.18 851 25.13 27.7 81.8 13 -3.4 25.9
18:15 1022 30.18 851 25.13 27.7 81.8 13 -3.1 26.5
18:20 1022 30.18 851 25.13 27.5 81.4 12 -3.7 25.3
18:25 1022 30.18 851 25.13 26.8 80.3 13 -3.5 25.8
18:30 1022 30.18 851 25.13 26.5 79.8 13 -3.7 25.3
18:35 1022 30.18 851 25.13 26.6 79.9 13 -3.8 25.2
18:40 1022 30.18 851 25.13 26.5 79.8 13 -4 24.8
18:45 1022 30.18 851 25.13 26.3 79.3 14 -3.1 26.3
18:50 1022 30.18 851 25.13 26.6 79.8 13 -4.2 24.4
18:55 1022 30.18 851 25.13 26.5 79.7 13 -4 24.8
19:00 1022 30.18 851 25.13 26.1 79 13 -3.7 25.4
19:05 1022 30.18 851 25.13 26 78.8 13 -4.2 24.4
19:10 1022 30.18 851 25.13 25.9 78.6 13 -4.5 24
19:15 1022 30.18 851 25.13 25.7 78.2 14 -3.5 25.6
19:20 1022 30.18 851 25.13 25.4 77.8 14 -3.5 25.7
19:25 1022 30.18 851 25.13 25.4 77.6 13 -4.3 24.2
19:30 1022 30.18 851 25.13 25.2 77.4 14 -4.2 24.4
19:35 1022 30.18 851 25.13 25.1 77.2 14 -4.4 24.1
19:40 1022 30.18 851 25.13 25 76.9 16 -2.4 27.8
19:45 1022 30.18 851 25.13 24.9 76.8 19 -0.4 31.3
19:50 1022 30.18 851 25.13 24.7 76.4 19 -0.2 31.7
19:55 1022 30.18 851 25.13 24.3 75.7 22 1.3 34.4
20:00 1022 30.18 851 25.13 23.9 75 20 -0.3 31.5
20:05 1022 30.18 851 25.13 23.6 74.5 24 2.2 35.9
20:10 1022 30.18 851 25.13 23.6 74.4 22 0.8 33.4
20:15 1022 30.18 851 25.13 23.4 74.2 22 0.9 33.6
20:20 1022 30.18 851 25.13 23.4 74 25 2.4 36.4
20:25 1022 30.18 851 25.13 22.5 72.5 27 2.8 37
20:30 1022 30.18 851 25.13 21.8 71.3 28 2.6 36.7
20:35 1022 30.18 851 25.13 21.4 70.5 28 2.6 36.6
20:40 1022 30.18 851 25.13 20.8 69.5 27 1.2 34.2
20:45 1022 30.18 851 25.13 20.5 68.9 26 0.6 33.2
20:50 1022 30.18 851 25.13 20.5 69 25 -0 32
20:55 1022 30.18 851 25.13 20.4 68.6 27 0.8 33.5
21:00 1022 30.18 851 25.13 20 68.1 26 0.2 32.4
21:05 1022 30.18 851 25.13 19.7 67.5 29 1.2 34.1
21:10 1022 30.18 851 25.13 19.5 67.1 30 1.6 34.9
21:15 1022 30.18 851 25.13 19.4 66.9 28 0.5 32.8
21:20 1022 30.18 851 25.13 19.4 67 27 -0.1 31.8
21:25 1022 30.18 851 25.13 19.6 67.2 25 -1 30.3
21:30 1022 30.18 851 25.13 19.8 67.6 26 -0.1 31.7
21:35 1022 30.18 851 25.13 19.5 67 25 -1.1 30.1
21:40 1022 30.18 851 25.13 19.8 67.6 26 -0.2 31.6
21:45 1022 30.18 851 25.13 19.6 67.2 25 -0.8 30.5
21:50 1022 30.18 851 25.13 19.2 66.6 26 -0.8 30.6
21:55 1022 30.18 851 25.13 19 66.2 27 -0.3 31.5
22:00 1022 30.18 851 25.13 18.6 65.4 27 -0.4 31.2
22:05 1022 30.18 851 25.13 18.4 65.1 28 -0.5 31.1
22:10 1022 30.18 851 25.13 18.2 64.8 28 -0.4 31.2
22:15 1022 30.18 852 25.16 18.1 64.6 28 -0.6 31
22:20 1023 30.21 852 25.16 18.1 64.5 29 0.1 32.1
22:25 1023 30.21 852 25.16 18.4 65.1 29 0.1 32.2
22:30 1023 30.21 852 25.16 18.5 65.3 29 0.4 32.7
22:35 1023 30.21 852 25.16 18.1 64.6 30 0.3 32.6
22:40 1022 30.18 852 25.16 18 64.3 30 0.2 32.4
22:45 1022 30.18 852 25.16 17.7 63.9 31 0.5 32.9
22:50 1022 30.18 852 25.16 17.7 63.8 29 -0.3 31.5
22:55 1023 30.21 852 25.16 17.9 64.1 29 -0.1 31.8
23:00 1022 30.18 852 25.16 18 64.5 28 -0.7 30.8
23:05 1023 30.21 852 25.16 18.6 65.4 26 -1.2 29.9
23:10 1023 30.21 852 25.16 19 66.1 25 -1.5 29.4
23:15 1023 30.21 852 25.16 19.1 66.5 24 -1.5 29.3
23:20 1022 30.18 852 25.16 19.2 66.6 24 -1.6 29.1
23:25 1022 30.18 852 25.16 19.1 66.3 25 -1.4 29.4
23:30 1022 30.18 852 25.16 19 66.1 25 -1.6 29.1
23:35 1022 30.18 852 25.16 19.1 66.5 24 -1.9 28.7
23:40 1022 30.18 852 25.16 19.2 66.6 24 -1.7 29
23:45 1022 30.18 852 25.16 18.9 66 24 -1.8 28.7
23:50 1023 30.21 852 25.16 18.8 65.9 24 -1.9 28.7
23:55 1023 30.21 852 25.16 18.9 66 24 -2 28.5
24:00 1023 30.21 852 25.16 19 66.1 24 -2.2 28.1